Flight Track Log - Related Links

Times and Time Zones

All times are in EDT time to prevent confusion due to time zone crossing. See the BJS439 flight status page for this flight to view local times or setup timezone preferences in your user account.

Time Position Orientation Groundspeed Altitude Reporting Facility
EDT Latitude Longitude Course Direction KTS MPH feet Rate Location/Type
Tue 02:55:44 PM 33.5597 -81.9853 59° Northeast 297 342 7,500  Level Jacksonville Center
Tue 02:56:45 PM 33.5989 -81.9003 61° Northeast 309 356 10,500 3,223 Climbing Jacksonville Center
Tue 02:57:45 PM 33.6311 -81.7875 71° East 326 375 14,000 3,500 Climbing Jacksonville Center
Tue 02:58:45 PM 33.6697 -81.6622 70° East 360 414 17,500 3,350 Climbing Jacksonville Center
Tue 02:59:00 PM 33.7217 -81.2964 57° Northeast  Level FlightAware Approximate
Tue 02:59:45 PM 33.7142 -81.5244 69° East 400 460 20,700  Level Jacksonville Center
Tue 03:00:00 PM 33.7814 -81.1869 57° Northeast  Level FlightAware Approximate
Tue 03:00:45 PM 33.7564 -81.3889 69° East 418 481 24,100  Level Jacksonville Center
Tue 03:01:00 PM 33.8376 -81.0748 59° Northeast  Level FlightAware Approximate
Tue 03:01:45 PM 33.8067 -81.2231 70° East 456 525 25,400  Level Jacksonville Center
Tue 03:02:45 PM 33.8567 -81.0744 68° East 474 545 28,400 2,571 Climbing Jacksonville Center
Tue 03:03:44 PM 33.9406 -80.9625 48° Northeast 459 528 30,500 1,311 Climbing Jacksonville Center
Tue 03:04:44 PM 34.0392 -80.8603 41° Northeast 452 520 31,000 298 Climbing Jacksonville Center
Tue 03:05:45 PM 34.1314 -80.7603 42° Northeast 452 520 31,100 793 Climbing Jacksonville Center
Tue 03:06:45 PM 34.2256 -80.6550 43° Northeast 452 520 32,600 1,613 Climbing Jacksonville Center
Tue 03:07:44 PM 34.3175 -80.5544 42° Northeast 452 520 34,300 1,200 Climbing Jacksonville Center
Tue 03:08:45 PM 34.4094 -80.4514 43° Northeast 447 514 35,000 347 Climbing Jacksonville Center
Tue 03:09:45 PM 34.4992 -80.3506 43° Northeast 442 509 35,000  Level Jacksonville Center
Tue 03:10:45 PM 34.5911 -80.2469 43° Northeast 442 509 35,000  Level Jacksonville Center
Tue 03:11:45 PM 34.6828 -80.1431 43° Northeast 437 503 35,000  Level Jacksonville Center
Tue 03:12:09 PM 34.7189 -80.1022 43° Northeast 434 499 35,000  Level Washington Center
Tue 03:13:09 PM 34.7994 -80.0131 42° Northeast 440 506 35,000  Level Washington Center
Tue 03:14:09 PM 34.8886 -79.9142 42° Northeast 435 501 35,000  Level Washington Center
Tue 03:15:10 PM 34.9778 -79.8125 43° Northeast 435 501 35,000  Level Washington Center
Tue 03:16:09 PM 35.0608 -79.7078 46° Northeast 430 495 35,000  Level Washington Center
Tue 03:17:09 PM 35.1236 -79.5739 60° Northeast 430 495 35,000  Level Washington Center
Tue 03:18:10 PM 35.1844 -79.4422 60° Northeast 439 505 35,000  Level Washington Center
Tue 03:19:09 PM 35.2469 -79.3103 60° Northeast 439 505 35,000  Level Washington Center
Tue 03:20:09 PM 35.3094 -79.1783 60° Northeast 439 505 35,000  Level Washington Center
Tue 03:21:09 PM 35.3697 -79.0461 61° Northeast 445 512 35,000 -450 Level Washington Center
Tue 03:22:09 PM 35.4297 -78.9186 60° Northeast 434 499 34,100 -950 Descending Washington Center
Tue 03:23:09 PM 35.4894 -78.7908 60° Northeast 429 494 33,100 -1,200 Descending Washington Center
Tue 03:24:09 PM 35.5539 -78.6428 62° Northeast 434 499 31,700 -1,700 Descending Washington Center
Tue 03:25:09 PM 35.6175 -78.5125 59° Northeast 434 499 29,700 -2,000 Descending Washington Center
Tue 03:26:09 PM 35.6772 -78.3767 62° Northeast 440 506 27,700 -2,033 Descending Washington Center
Tue 03:27:10 PM 35.7386 -78.2406 61° Northeast 440 506 25,600 -2,000 Descending Washington Center
Tue 03:28:09 PM 35.8000 -78.1044 61° Northeast 445 512 23,700 -2,017 Descending Washington Center
Tue 03:29:09 PM 35.8569 -77.9753 61° Northeast 445 512 21,600 -1,350 Descending Washington Center
Tue 03:30:09 PM 35.9181 -77.8414 61° Northeast 440 506 21,000 -300 Descending Washington Center
Tue 03:31:09 PM 35.9767 -77.7094 61° Northeast 440 506 21,000  Level Washington Center
Tue 03:32:09 PM 36.0394 -77.5803 59° Northeast 435 501 21,000  Level Washington Center
Tue 03:33:09 PM 36.1000 -77.4506 60° Northeast 430 495 21,000 -850 Level Washington Center
Tue 03:34:09 PM 36.1581 -77.3258 60° Northeast 430 495 19,300 -1,600 Descending Washington Center
Tue 03:35:09 PM 36.2075 -77.2189 60° Northeast 412 474 17,800 -1,782 Descending Washington Center
Tue 03:35:50 PM 36.2547 -77.1297 57° Northeast 409 471 16,300 -2,200 Descending Washington Center
Tue 03:36:09 PM 36.2719 -77.0836 65° Northeast 412 474 15,600 -1,967 Descending Washington Center
Tue 03:36:51 PM 36.3106 -77.0069 58° Northeast 413 475 14,300 -1,967 Descending Washington Center
Tue 03:37:10 PM 36.3297 -76.9636 61° Northeast 412 474 13,600 -2,100 Descending Washington Center
Tue 03:37:51 PM 36.3681 -76.8869 58° Northeast 404 465 12,200 -1,932 Descending Washington Center
Tue 03:38:09 PM 36.3872 -76.8458 60° Northeast 401 461 11,700 -1,082 Descending Washington Center
Tue 03:38:52 PM 36.4278 -76.7664 58° Northeast 376 433 11,100 -800 Descending Washington Center
Tue 03:39:09 PM 36.4386 -76.7383 64° Northeast 384 442 10,900  Descending Washington Center
Tue 03:39:53 PM 36.4767 -76.6639 58° Northeast 339 390 11,100  Climbing Washington Center
Tue 03:40:09 PM 36.4894 -76.6358 60° Northeast 361 415 10,900 -1,377 Descending Washington Center
Tue 03:40:54 PM 36.5172 -76.5767 60° Northeast 280 322 9,700 -1,600 Descending Washington Center
Tue 03:41:09 PM 36.5278 -76.5508 63° Northeast 315 362 9,300 -2,066 Descending Washington Center
Tue 03:41:55 PM 36.5658 -76.4997 47° Northeast 267 307 7,600 -2,066 Descending Washington Center
Tue 03:42:10 PM 36.5783 -76.4842 45° Northeast 280 322 7,200 -2,000 Descending Washington Center
Tue 03:42:55 PM 36.6225 -76.4408 38° Northeast 262 302 5,600 -2,038 Descending Washington Center
Tue 03:43:56 PM 36.6769 -76.3897 37° Northeast 249 287 3,600 -1,641 Descending Washington Center
Tue 03:45:03 PM 36.7378 -76.3514 27° Northeast 187 215 2,100 -703 Descending Washington Center
Tue 03:46:04 PM 36.7797 -76.3153 35° Northeast 188 216 2,100  Level Washington Center

Login

Don't have an account? Register now (free) for customized features, flight alerts, and more!